Time;durP1;ratioP1;P1;durP2;ratioP2;P2;SDS_P1;SDS_P2;PMS_P1;PMS_P2;Temp;Humidity;BMP_temperature;BMP_pressure;BME280_temperature;BME280_humidity;BME280_pressure;Samples;Min_cycle;Max_cycle;Signal;HPM_P1;HPM_P2
2021/06/20 00:00:34;;;;;;;7.03;6.30;;;;;;;27.28;52.09;96113.56;5052372;28;20292;-67
2021/06/20 00:03:01;;;;;;;6.60;5.75;;;;;;;27.19;52.28;96109.50;5052011;28;20186;-66
2021/06/20 00:05:30;;;;;;;7.38;6.38;;;;;;;27.28;52.45;96096.63;5051691;28;20170;-66
2021/06/20 00:07:57;;;;;;;6.93;6.30;;;;;;;27.40;52.35;96090.34;5051918;28;20205;-66
2021/06/20 00:10:25;;;;;;;7.00;5.30;;;;;;;27.26;52.54;96088.91;5051647;28;20174;-66
2021/06/20 00:12:52;;;;;;;9.85;6.63;;;;;;;27.22;52.82;96093.44;5052338;28;20173;-66
2021/06/20 00:15:20;;;;;;;7.00;6.32;;;;;;;27.00;53.84;96091.38;5051225;28;20602;-66
2021/06/20 00:17:46;;;;;;;6.53;5.93;;;;;;;26.99;54.11;96092.50;5052494;28;20280;-67
2021/06/20 00:20:14;;;;;;;6.72;6.07;;;;;;;26.86;54.32;96082.97;5051468;28;20273;-66
2021/06/20 00:22:40;;;;;;;7.70;6.47;;;;;;;26.88;53.98;96078.81;5051587;28;20626;-66
2021/06/20 00:25:06;;;;;;;6.18;5.68;;;;;;;26.80;53.92;96085.13;5052122;28;20171;-66
2021/06/20 00:27:32;;;;;;;6.50;5.90;;;;;;;26.70;53.98;96079.47;5052669;28;20266;-67
2021/06/20 00:29:57;;;;;;;7.22;6.05;;;;;;;26.74;54.08;96083.81;5051944;28;20709;-66
2021/06/20 00:32:23;;;;;;;6.40;5.80;;;;;;;26.94;53.54;96092.78;5051179;28;20178;-66
2021/06/20 00:34:48;;;;;;;6.30;5.70;;;;;;;26.80;53.63;96109.34;5051477;28;20550;-67
2021/06/20 00:37:14;;;;;;;7.05;6.35;;;;;;;26.88;53.00;96097.63;5051180;28;20252;-66
2021/06/20 00:39:40;;;;;;;9.60;6.45;;;;;;;26.99;52.75;96105.16;5049311;28;20249;-66
2021/06/20 00:42:06;;;;;;;9.77;6.50;;;;;;;26.86;52.95;96116.00;5051557;28;20276;-66
2021/06/20 00:44:46;;;;;;;6.63;6.07;;;;;;;26.90;52.76;96118.81;5051314;28;20634;-66
2021/06/20 00:47:11;;;;;;;7.78;6.05;;;;;;;27.00;52.75;96120.19;5019631;28;20654;-66
2021/06/20 00:49:37;;;;;;;7.43;5.80;;;;;;;26.84;52.54;96120.94;5051907;28;20205;-66
2021/06/20 00:52:02;;;;;;;9.18;6.80;;;;;;;27.10;51.89;96120.44;5052533;28;20170;-66
2021/06/20 00:54:28;;;;;;;10.85;6.00;;;;;;;27.11;51.63;96121.22;5051575;28;20680;-66
2021/06/20 00:56:54;;;;;;;8.55;5.78;;;;;;;26.97;51.74;96135.13;5051462;28;20178;-66
2021/06/20 00:59:19;;;;;;;9.23;5.60;;;;;;;27.00;51.76;96137.13;5050820;28;20209;-66
2021/06/20 01:01:45;;;;;;;7.13;5.43;;;;;;;27.04;51.19;96129.13;5051615;28;20178;-66
2021/06/20 01:04:10;;;;;;;13.75;6.03;;;;;;;26.91;51.56;96127.66;5050693;28;20166;-66
2021/06/20 01:06:37;;;;;;;12.18;5.80;;;;;;;26.86;51.58;96124.06;5050949;28;20174;-67
2021/06/20 01:09:04;;;;;;;7.97;5.68;;;;;;;26.86;51.38;96124.06;5051448;28;20205;-66
2021/06/20 01:11:29;;;;;;;15.65;5.93;;;;;;;26.98;50.97;96122.44;5050572;28;20173;-66
2021/06/20 01:13:55;;;;;;;14.73;5.68;;;;;;;26.92;51.35;96130.00;5050847;28;20166;-66
2021/06/20 01:16:20;;;;;;;7.95;5.20;;;;;;;26.82;51.18;96125.09;5065663;28;20204;-66
2021/06/20 01:18:46;;;;;;;8.73;5.28;;;;;;;26.78;50.97;96119.66;5066309;28;20510;-66
2021/06/20 01:21:12;;;;;;;12.00;5.00;;;;;;;26.77;50.71;96128.06;5049977;28;20188;-66
2021/06/20 01:23:37;;;;;;;17.00;5.75;;;;;;;26.78;50.69;96126.94;5050899;28;20193;-66
2021/06/20 01:26:03;;;;;;;12.88;4.78;;;;;;;26.64;51.09;96129.28;5051150;28;20631;-66
2021/06/20 01:28:31;;;;;;;17.48;6.00;;;;;;;26.67;50.77;96140.13;5050302;28;20209;-66
2021/06/20 01:31:01;;;;;;;11.50;5.13;;;;;;;26.75;50.27;96144.53;5032856;28;20717;-66
2021/06/20 01:33:27;;;;;;;9.63;5.47;;;;;;;26.71;50.22;96142.88;5049966;28;20170;-66
2021/06/20 01:35:53;;;;;;;11.45;5.28;;;;;;;26.70;50.39;96152.84;5050734;28;20273;-66
2021/06/20 01:38:20;;;;;;;19.45;5.20;;;;;;;26.58;50.49;96141.41;5051934;28;20329;-66
2021/06/20 01:40:45;;;;;;;7.22;5.10;;;;;;;26.58;50.52;96155.63;5070441;28;20602;-66
2021/06/20 01:43:11;;;;;;;19.05;5.05;;;;;;;26.46;51.05;96153.78;5072757;28;20226;-66
2021/06/20 01:45:39;;;;;;;12.02;4.47;;;;;;;26.45;50.86;96151.44;5074667;28;20173;-67
2021/06/20 01:48:07;;;;;;;11.57;5.38;;;;;;;26.41;51.28;96161.31;5075041;28;20203;-66
2021/06/20 01:50:34;;;;;;;10.75;4.60;;;;;;;26.31;51.20;96159.09;5074300;28;20180;-66
2021/06/20 01:53:18;;;;;;;11.38;4.65;;;;;;;26.35;51.28;96173.44;5074859;28;20164;-67
2021/06/20 01:55:46;;;;;;;15.93;4.60;;;;;;;26.22;51.43;96175.34;5072886;28;20176;-66
2021/06/20 01:58:14;;;;;;;11.20;5.00;;;;;;;26.39;51.30;96175.09;5073351;28;20204;-66
2021/06/20 02:00:43;;;;;;;13.75;5.50;;;;;;;26.30;51.44;96169.09;5074896;28;20166;-66
2021/06/20 02:03:15;;;;;;;17.85;5.25;;;;;;;26.22;52.10;96169.97;5073981;28;20194;-66
2021/06/20 02:05:41;;;;;;;9.55;4.75;;;;;;;26.18;52.23;96171.81;5074666;28;20166;-66
2021/06/20 02:08:11;;;;;;;9.48;4.57;;;;;;;26.21;52.15;96162.25;5074254;28;20630;-67
2021/06/20 02:10:38;;;;;;;13.98;4.60;;;;;;;26.08;52.77;96178.41;5073108;28;20176;-66
2021/06/20 02:13:03;;;;;;;12.98;4.93;;;;;;;26.14;52.64;96176.25;5074137;28;20248;-66
2021/06/20 02:15:30;;;;;;;13.02;5.78;;;;;;;25.99;53.22;96187.75;5073402;28;20209;-66
2021/06/20 02:17:56;;;;;;;16.13;5.97;;;;;;;26.04;53.26;96196.34;5074266;28;20283;-66
2021/06/20 02:20:21;;;;;;;10.63;4.53;;;;;;;25.94;53.75;96198.72;5073459;28;20702;-66
2021/06/20 02:22:48;;;;;;;15.32;4.97;;;;;;;25.96;53.54;96210.72;5074133;28;20220;-65
2021/06/20 02:25:15;;;;;;;12.50;5.10;;;;;;;25.93;53.83;96219.41;5073306;28;20274;-66
2021/06/20 02:27:42;;;;;;;12.25;4.85;;;;;;;25.94;53.97;96218.31;5074215;28;20204;-66
2021/06/20 02:30:09;;;;;;;13.57;4.60;;;;;;;25.83;54.38;96221.78;5073538;28;20730;-66
2021/06/20 02:32:36;;;;;;;10.20;5.95;;;;;;;25.84;54.55;96231.41;5073835;28;20177;-66
2021/06/20 02:35:03;;;;;;;9.43;4.63;;;;;;;25.77;54.62;96228.50;5073477;28;20233;-65
2021/06/20 02:37:31;;;;;;;11.00;5.00;;;;;;;25.74;55.11;96224.63;5060492;28;20666;-65
2021/06/20 02:39:57;;;;;;;11.38;4.90;;;;;;;25.77;54.96;96225.81;5053089;28;20237;-65
2021/06/20 02:42:23;;;;;;;14.43;4.95;;;;;;;25.81;55.21;96226.72;5052561;28;20594;-65
2021/06/20 02:44:49;;;;;;;13.73;5.20;;;;;;;25.73;55.35;96231.09;5053306;28;20174;-67
2021/06/20 02:47:16;;;;;;;16.23;5.80;;;;;;;25.74;55.45;96231.88;5051342;28;20588;-66
2021/06/20 02:49:42;;;;;;;13.93;4.68;;;;;;;25.79;55.27;96234.34;5069388;28;20174;-66
2021/06/20 02:52:12;;;;;;;14.50;5.18;;;;;;;25.75;55.55;96231.53;5053041;28;20162;-65
2021/06/20 02:54:49;;;;;;;13.93;5.00;;;;;;;25.65;55.69;96229.31;5052490;28;20205;-65
2021/06/20 02:57:16;;;;;;;9.70;5.07;;;;;;;25.61;55.96;96236.47;5037644;28;20174;-66
2021/06/20 02:59:42;;;;;;;11.35;4.82;;;;;;;25.63;56.10;96240.38;5054074;28;20170;-65
2021/06/20 03:02:07;;;;;;;14.98;4.95;;;;;;;25.60;56.39;96251.00;5052937;28;20729;-66
2021/06/20 03:04:33;;;;;;;12.70;4.88;;;;;;;25.58;56.53;96255.91;5053040;28;20184;-65
2021/06/20 03:06:58;;;;;;;13.85;5.25;;;;;;;25.71;56.11;96257.50;5052935;28;20221;-65
2021/06/20 03:09:23;;;;;;;11.85;4.72;;;;;;;25.58;56.67;96255.91;5052548;28;20603;-65
2021/06/20 03:11:49;;;;;;;9.30;4.32;;;;;;;25.45;57.22;96259.69;5053221;28;20171;-66
2021/06/20 03:14:15;;;;;;;12.57;4.65;;;;;;;25.53;56.93;96264.94;5052541;28;20174;-66
2021/06/20 03:16:41;;;;;;;8.43;4.65;;;;;;;25.55;56.79;96270.00;5053269;28;20181;-66
2021/06/20 03:19:10;;;;;;;7.10;4.30;;;;;;;25.60;56.77;96272.47;5052619;28;20217;-66
2021/06/20 03:21:36;;;;;;;9.10;4.80;;;;;;;25.70;56.33;96285.44;5052019;28;20253;-65
2021/06/20 03:24:02;;;;;;;15.27;5.03;;;;;;;25.69;56.24;96294.63;5053210;28;20277;-66
2021/06/20 03:26:28;;;;;;;12.27;4.35;;;;;;;25.57;56.99;96279.31;5052066;28;20193;-65
2021/06/20 03:28:55;;;;;;;13.23;4.97;;;;;;;25.49;57.45;96287.44;5052979;28;20202;-66
2021/06/20 03:31:20;;;;;;;13.88;5.60;;;;;;;25.51;56.97;96283.31;5052089;28;20185;-65
2021/06/20 03:33:46;;;;;;;12.63;5.00;;;;;;;25.61;57.04;96299.00;5052936;28;20170;-65
2021/06/20 03:36:11;;;;;;;13.20;5.55;;;;;;;25.64;56.84;96303.69;5052076;28;20318;-65
2021/06/20 03:38:38;;;;;;;11.73;5.05;;;;;;;25.56;57.18;96315.31;5056892;28;20399;-65
2021/06/20 03:41:03;;;;;;;10.65;4.22;;;;;;;25.56;57.48;96307.28;5072088;28;20177;-66
2021/06/20 03:43:29;;;;;;;16.20;5.28;;;;;;;25.63;57.81;96304.78;5072059;28;20263;-67
2021/06/20 03:45:55;;;;;;;13.63;5.20;;;;;;;25.60;61.13;96302.00;5071346;28;20180;-65
2021/06/20 03:48:20;;;;;;;15.50;4.13;;;;;;;25.48;61.75;96307.31;5070384;28;20287;-66
2021/06/20 03:50:46;;;;;;;5.78;4.43;;;;;;;25.44;60.26;96312.59;5072063;28;20181;-65
2021/06/20 03:53:11;;;;;;;10.73;4.65;;;;;;;25.36;59.77;96310.00;5072062;28;20180;-66
2021/06/20 03:55:38;;;;;;;9.13;4.13;;;;;;;25.33;59.56;96305.31;5072433;28;20177;-65
2021/06/20 03:58:06;;;;;;;10.32;4.35;;;;;;;25.32;59.58;96309.09;5072495;28;20681;-65
2021/06/20 04:00:33;;;;;;;6.38;4.40;;;;;;;25.55;59.31;96326.38;5071591;28;20174;-65
2021/06/20 04:02:59;;;;;;;7.63;4.20;;;;;;;25.31;60.39;96311.00;5071854;28;20561;-65
2021/06/20 04:05:24;;;;;;;11.15;4.72;;;;;;;25.07;62.78;96305.59;5071015;28;20180;-65
2021/06/20 04:07:49;;;;;;;6.20;4.22;;;;;;;25.14;62.73;96300.44;5071980;28;20688;-66
2021/06/20 04:10:15;;;;;;;8.43;4.82;;;;;;;24.99;63.44;96277.72;5071296;28;20185;-65
2021/06/20 04:12:40;;;;;;;11.50;4.60;;;;;;;24.85;66.22;96269.94;5072220;28;20166;-65
2021/06/20 04:15:07;;;;;;;9.35;5.00;;;;;;;24.73;68.59;96277.16;5072256;28;20256;-65
2021/06/20 04:17:34;;;;;;;7.72;4.68;;;;;;;24.61;70.75;96283.25;5071146;28;20542;-65
2021/06/20 04:20:02;;;;;;;9.35;4.47;;;;;;;24.54;69.32;96292.94;5055527;28;20188;-65
2021/06/20 04:22:27;;;;;;;9.80;4.70;;;;;;;24.57;70.04;96293.09;5071088;28;20185;-65
2021/06/20 04:24:53;;;;;;;10.40;4.65;;;;;;;24.74;68.61;96297.50;5070413;28;20184;-65
2021/06/20 04:27:18;;;;;;;6.93;4.03;;;;;;;24.57;69.02;96289.63;5071157;28;20173;-65
2021/06/20 04:29:44;;;;;;;12.05;5.03;;;;;;;24.60;68.75;96300.44;5071649;28;20173;-68
2021/06/20 04:32:09;;;;;;;13.63;4.22;;;;;;;24.64;67.70;96289.84;5071959;28;20610;-67
2021/06/20 04:34:34;;;;;;;13.77;4.50;;;;;;;24.84;66.47;96289.06;5071001;28;20254;-65
2021/06/20 04:37:00;;;;;;;12.20;4.82;;;;;;;24.85;66.37;96277.97;5071705;28;20177;-65
2021/06/20 04:39:27;;;;;;;11.60;4.70;;;;;;;24.92;65.90;96269.44;5055683;28;20332;-65
2021/06/20 04:41:52;;;;;;;8.82;4.03;;;;;;;24.96;66.13;96261.53;5051717;28;20174;-65
2021/06/20 04:47:02;;;;;;;8.88;4.28;;;;;;;25.23;64.41;96260.91;5052105;28;20212;-65
2021/06/20 04:49:28;;;;;;;10.65;4.35;;;;;;;25.10;65.31;96270.81;5050423;28;20206;-65
2021/06/20 04:51:53;;;;;;;9.02;4.90;;;;;;;25.18;64.89;96264.59;5051778;28;20166;-65
2021/06/20 04:54:19;;;;;;;5.95;3.72;;;;;;;25.31;64.16;96273.44;5050750;28;20174;-65
2021/06/20 04:56:45;;;;;;;10.73;4.18;;;;;;;25.44;63.90;96283.06;5051192;28;20205;-65
2021/06/20 04:59:10;;;;;;;5.75;3.83;;;;;;;25.57;63.04;96286.59;5051222;28;20546;-65
2021/06/20 05:01:37;;;;;;;15.50;5.15;;;;;;;25.69;62.66;96286.56;5050684;28;20182;-65
2021/06/20 05:04:03;;;;;;;9.20;4.50;;;;;;;25.85;62.09;96292.84;5051466;28;20189;-65
2021/06/20 05:06:28;;;;;;;8.07;4.25;;;;;;;25.84;61.46;96287.81;5050330;28;20539;-67
2021/06/20 05:08:54;;;;;;;7.00;4.10;;;;;;;25.89;61.23;96285.69;5051096;28;20275;-65
2021/06/20 05:11:19;;;;;;;10.68;4.68;;;;;;;25.79;61.28;96283.47;5050133;28;20604;-65
2021/06/20 05:13:45;;;;;;;9.85;4.10;;;;;;;25.71;61.67;96289.72;5051213;28;20176;-65
2021/06/20 05:16:11;;;;;;;8.02;3.72;;;;;;;25.67;62.22;96288.81;5051052;28;20313;-65
2021/06/20 05:18:37;;;;;;;5.95;3.70;;;;;;;25.77;61.28;96293.75;5049614;28;20280;-65
2021/06/20 05:21:02;;;;;;;7.50;4.32;;;;;;;25.55;62.16;96307.56;5050778;28;20227;-66
2021/06/20 05:23:28;;;;;;;7.32;3.58;;;;;;;25.83;60.56;96310.41;5049827;28;20246;-65
2021/06/20 05:25:53;;;;;;;9.95;3.75;;;;;;;25.73;61.09;96321.59;5051266;28;20192;-65
2021/06/20 05:28:19;;;;;;;9.20;3.95;;;;;;;25.44;64.11;96315.28;5050033;28;20198;-66
2021/06/20 05:30:45;;;;;;;6.68;4.25;;;;;;;25.43;63.81;96319.06;5033067;28;20184;-65
2021/06/20 05:33:18;;;;;;;5.43;3.60;;;;;;;25.20;64.41;96315.22;5050766;28;20224;-66
2021/06/20 05:35:45;;;;;;;6.15;3.50;;;;;;;25.17;65.65;96318.56;5039942;28;20178;-66
2021/06/20 05:38:11;;;;;;;6.63;3.92;;;;;;;25.52;63.96;96310.94;5051171;28;20280;-65
2021/06/20 05:40:38;;;;;;;9.02;3.22;;;;;;;25.93;62.51;96315.31;5069785;28;20177;-65
2021/06/20 05:43:04;;;;;;;8.32;3.40;;;;;;;26.15;61.53;96309.50;5070747;28;20205;-65
2021/06/20 05:45:31;;;;;;;6.85;3.30;;;;;;;26.22;60.08;96303.56;5069523;28;20260;-65
2021/06/20 05:47:56;;;;;;;6.05;3.55;;;;;;;26.23;60.57;96303.25;5070857;28;20204;-65
2021/06/20 05:50:22;;;;;;;6.82;3.63;;;;;;;26.29;59.12;96303.81;5070157;28;20169;-65
2021/06/20 05:52:47;;;;;;;8.95;3.33;;;;;;;26.30;58.21;96308.84;5070757;28;20737;-65
2021/06/20 05:55:13;;;;;;;6.55;3.35;;;;;;;26.13;58.98;96325.19;5070640;28;20188;-66
2021/06/20 05:57:39;;;;;;;6.97;3.33;;;;;;;26.42;58.40;96324.13;5070531;28;20201;-65
2021/06/20 06:00:07;;;;;;;6.75;3.42;;;;;;;26.22;58.70;96330.41;5071058;28;20170;-65
2021/06/20 06:02:32;;;;;;;5.60;3.05;;;;;;;26.22;57.20;96322.38;5069881;28;20198;-65
2021/06/20 06:04:58;;;;;;;7.13;3.83;;;;;;;26.43;56.88;96326.50;5070546;28;20176;-65
2021/06/20 06:07:23;;;;;;;5.72;3.30;;;;;;;26.28;57.25;96316.44;5070116;28;20598;-65
2021/06/20 06:09:48;;;;;;;5.50;3.20;;;;;;;26.48;56.68;96304.75;5070898;28;20188;-65
2021/06/20 06:12:23;;;;;;;7.00;3.67;;;;;;;26.79;55.76;96312.16;5070735;28;20173;-65
2021/06/20 06:14:51;;;;;;;7.65;3.53;;;;;;;27.14;54.60;96311.59;5070332;28;20173;-65
2021/06/20 06:17:20;;;;;;;9.15;3.38;;;;;;;27.38;53.59;96306.06;5070163;28;20197;-65
2021/06/20 06:19:50;;;;;;;3.65;2.80;;;;;;;27.80;52.39;96310.97;5070648;28;20186;-65
2021/06/20 06:22:21;;;;;;;8.55;3.15;;;;;;;28.05;51.33;96315.81;5070236;28;20247;-70
2021/06/20 06:24:48;;;;;;;4.88;3.20;;;;;;;28.01;51.60;96325.72;5070731;28;20205;-70
2021/06/20 06:27:16;;;;;;;5.68;3.40;;;;;;;28.24;51.60;96338.59;5070791;28;20602;-71
2021/06/20 06:29:42;;;;;;;6.82;3.30;;;;;;;28.33;51.48;96341.84;5073022;28;20181;-69
2021/06/20 06:32:09;;;;;;;6.25;2.95;;;;;;;28.47;51.31;96351.06;5074098;28;20236;-73
2021/06/20 06:34:35;;;;;;;3.83;3.13;;;;;;;28.46;51.09;96352.19;5073000;28;20418;-70
2021/06/20 06:37:02;;;;;;;4.65;3.10;;;;;;;28.45;50.43;96352.53;5074196;28;20181;-69
2021/06/20 06:39:27;;;;;;;4.88;2.88;;;;;;;28.17;50.82;96358.06;5057452;28;20273;-70
2021/06/20 06:41:54;;;;;;;6.18;2.65;;;;;;;28.35;50.31;96369.25;5053699;28;20218;-69
2021/06/20 06:44:20;;;;;;;5.47;3.10;;;;;;;28.05;50.82;96368.91;5053216;28;20181;-70
2021/06/20 06:46:46;;;;;;;7.30;3.30;;;;;;;28.35;51.60;96364.66;5053878;28;20261;-70
2021/06/20 06:49:11;;;;;;;4.03;2.90;;;;;;;28.64;50.05;96357.19;5052999;28;20289;-70
2021/06/20 06:51:37;;;;;;;8.63;3.17;;;;;;;28.32;50.08;96359.16;5035788;28;20642;-69
2021/06/20 06:54:03;;;;;;;6.95;2.58;;;;;;;28.63;48.93;96366.41;5054487;28;20178;-69
2021/06/20 06:56:29;;;;;;;5.13;2.65;;;;;;;28.68;48.76;96366.13;5053730;28;20211;-69
2021/06/20 06:58:55;;;;;;;6.90;2.83;;;;;;;28.75;48.99;96377.09;5053700;28;20205;-70
2021/06/20 07:01:21;;;;;;;6.88;2.67;;;;;;;28.46;49.41;96381.84;5053667;28;20170;-69
2021/06/20 07:03:46;;;;;;;5.40;2.80;;;;;;;28.83;48.97;96379.59;5054304;28;20605;-78
2021/06/20 07:06:12;;;;;;;5.47;2.90;;;;;;;28.60;49.20;96370.56;5055522;28;20174;-72
2021/06/20 07:08:38;;;;;;;4.28;3.40;;;;;;;27.70;51.72;96366.91;5053161;28;20206;-72
2021/06/20 07:11:04;;;;;;;6.85;3.67;;;;;;;27.95;51.43;96372.13;5054219;28;20185;-72
2021/06/20 07:13:30;;;;;;;5.75;3.33;;;;;;;28.14;50.99;96368.78;5053508;28;20166;-73
2021/06/20 07:15:55;;;;;;;7.57;3.63;;;;;;;28.13;50.89;96356.44;5053689;28;20579;-72
2021/06/20 07:18:21;;;;;;;5.50;3.75;;;;;;;27.53;52.72;96355.72;5052722;28;20651;-72
2021/06/20 07:20:47;;;;;;;8.43;4.57;;;;;;;27.73;52.39;96360.06;5053656;28;20178;-72
2021/06/20 07:23:13;;;;;;;5.47;3.47;;;;;;;27.76;52.64;96353.19;5053328;28;20189;-74
2021/06/20 07:25:39;;;;;;;11.02;4.35;;;;;;;27.95;51.86;96356.75;5053774;28;20235;-72
2021/06/20 07:28:05;;;;;;;5.35;3.28;;;;;;;27.79;52.85;96360.59;5035541;28;20198;-73
2021/06/20 07:30:31;;;;;;;5.53;3.25;;;;;;;27.57;53.43;96357.38;5053651;28;20186;-71
2021/06/20 07:32:57;;;;;;;5.63;3.20;;;;;;;27.27;53.98;96359.63;5053596;28;20178;-71
2021/06/20 07:35:23;;;;;;;7.43;2.72;;;;;;;27.20;53.97;96364.03;5053225;28;20190;-71
2021/06/20 07:37:49;;;;;;;10.02;2.92;;;;;;;26.86;54.36;96370.75;5053521;28;20248;-71
2021/06/20 07:40:15;;;;;;;3.10;2.80;;;;;;;26.80;54.30;96378.28;5047908;28;20238;-71
2021/06/20 07:42:41;;;;;;;7.32;3.45;;;;;;;26.78;54.35;96377.06;5053207;28;20198;-71
2021/06/20 07:45:07;;;;;;;4.68;3.08;;;;;;;27.07;53.69;96381.38;5052799;28;20181;-71
2021/06/20 07:47:34;;;;;;;7.78;3.10;;;;;;;27.07;53.71;96382.16;5052272;28;20174;-73
2021/06/20 07:49:59;;;;;;;4.47;3.03;;;;;;;27.25;53.47;96369.19;5034875;28;20181;-71
2021/06/20 07:52:25;;;;;;;6.45;3.20;;;;;;;27.07;53.44;96379.47;5051809;28;20166;-71
2021/06/20 07:54:50;;;;;;;9.50;3.42;;;;;;;26.99;53.65;96380.38;5052763;28;20177;-71
2021/06/20 07:57:21;;;;;;;3.95;2.70;;;;;;;27.00;53.39;96384.63;5052759;28;20197;-73
2021/06/20 07:59:49;;;;;;;6.35;2.50;;;;;;;26.98;53.17;96378.00;5052780;28;20166;-71
2021/06/20 08:02:15;;;;;;;6.35;3.15;;;;;;;26.68;54.10;96378.31;5053035;28;20284;-71
2021/06/20 08:04:42;;;;;;;6.25;2.60;;;;;;;26.38;54.95;96368.94;5051929;28;20620;-71
2021/06/20 08:07:08;;;;;;;4.50;2.53;;;;;;;26.37;54.79;96360.09;5034605;28;20162;-71
2021/06/20 08:09:34;;;;;;;5.47;2.58;;;;;;;26.46;54.79;96360.00;5050795;28;20292;-69
2021/06/20 08:12:00;;;;;;;5.65;2.90;;;;;;;26.63;53.90;96357.03;5052041;28;20170;-70
2021/06/20 08:14:26;;;;;;;2.50;2.30;;;;;;;26.72;53.83;96359.59;5050923;28;20166;-70
2021/06/20 08:16:51;;;;;;;3.83;2.90;;;;;;;27.05;53.01;96351.31;5051366;28;20229;-70
2021/06/20 08:19:17;;;;;;;4.75;3.25;;;;;;;27.35;52.48;96349.06;5032933;28;20237;-69
2021/06/20 08:21:43;;;;;;;2.55;2.35;;;;;;;27.61;51.62;96338.59;5051627;28;20193;-71
2021/06/20 08:24:10;;;;;;;8.77;2.92;;;;;;;27.20;52.68;96340.59;5051764;28;20531;-70
2021/06/20 08:26:36;;;;;;;4.85;3.00;;;;;;;27.23;52.23;96333.75;5050449;28;20181;-71
2021/06/20 08:29:03;;;;;;;5.22;2.92;;;;;;;27.72;50.91;96336.94;5052570;28;20267;-71
2021/06/20 08:31:28;;;;;;;6.85;3.05;;;;;;;27.50;51.55;96330.25;5033265;28;20261;-74
2021/06/20 08:33:54;;;;;;;3.92;3.05;;;;;;;27.81;51.17;96337.53;5051104;28;20689;-70
2021/06/20 08:36:22;;;;;;;3.85;3.10;;;;;;;27.86;51.06;96339.22;5051112;28;20231;-70
2021/06/20 08:38:47;;;;;;;3.72;3.20;;;;;;;27.34;52.73;96337.50;5048943;28;20601;-69
2021/06/20 08:41:14;;;;;;;7.35;3.42;;;;;;;26.53;57.25;96340.59;5032632;28;20273;-73
2021/06/20 08:43:40;;;;;;;4.93;3.72;;;;;;;26.95;56.82;96328.38;5050366;28;20201;-73
2021/06/20 08:46:06;;;;;;;8.38;3.72;;;;;;;26.47;58.40;96327.38;5050951;28;20182;-69
2021/06/20 08:48:35;;;;;;;5.28;3.72;;;;;;;26.99;57.28;96325.78;5032172;28;20205;-71
2021/06/20 08:51:01;;;;;;;6.03;3.45;;;;;;;26.95;57.01;96322.22;5051414;28;20170;-68
2021/06/20 08:53:27;;;;;;;6.45;3.97;;;;;;;27.01;56.53;96328.91;5049830;28;20211;-68
2021/06/20 08:55:52;;;;;;;9.35;4.35;;;;;;;27.00;56.49;96322.75;5051256;28;20170;-68
2021/06/20 08:58:26;;;;;;;5.78;3.72;;;;;;;26.70;57.56;96321.47;5051086;28;20220;-68
2021/06/20 09:00:54;;;;;;;11.93;3.58;;;;;;;26.92;55.09;96314.84;5051553;28;20620;-69
2021/06/20 09:03:46;;;;;;;5.60;3.22;;;;;;;27.45;52.65;96317.00;5050967;28;20225;-67
2021/06/20 09:06:23;;;;;;;8.88;3.30;;;;;;;27.66;51.83;96306.78;5033276;28;20186;-68
2021/06/20 09:08:57;;;;;;;4.18;3.28;;;;;;;27.96;50.46;96309.03;5051292;28;20577;-68
2021/06/20 09:11:35;;;;;;;4.03;3.15;;;;;;;27.83;51.10;96315.66;5032481;28;20197;-68
2021/06/20 09:14:05;;;;;;;4.53;3.15;;;;;;;28.04;50.49;96308.06;5033203;28;20263;-68
2021/06/20 09:16:31;;;;;;;7.95;3.10;;;;;;;28.33;49.80;96309.50;5032254;28;20304;-68
2021/06/20 09:18:57;;;;;;;3.83;2.80;;;;;;;28.13;51.16;96319.47;5050054;28;20209;-68
2021/06/20 09:21:25;;;;;;;4.88;2.80;;;;;;;28.31;50.63;96309.09;5050154;28;20174;-68
2021/06/20 09:23:55;;;;;;;4.50;3.08;;;;;;;27.81;52.14;96310.59;5050569;28;20202;-68
2021/06/20 09:26:42;;;;;;;5.28;2.83;;;;;;;27.60;53.19;96310.88;5050454;28;20653;-68
2021/06/20 09:29:08;;;;;;;4.97;3.20;;;;;;;28.23;51.70;96310.06;5050750;28;20208;-68
2021/06/20 09:31:43;;;;;;;5.03;2.70;;;;;;;28.67;49.23;96316.00;5049834;28;20196;-68
2021/06/20 09:34:09;;;;;;;4.32;2.83;;;;;;;28.53;49.42;96311.88;5050766;28;20176;-68
2021/06/20 09:36:35;;;;;;;4.25;3.00;;;;;;;28.37;49.05;96305.75;5049855;28;20182;-71
2021/06/20 09:39:00;;;;;;;2.85;2.65;;;;;;;28.66;48.58;96304.44;5048516;28;20242;-73
2021/06/20 09:41:26;;;;;;;5.18;3.30;;;;;;;28.71;48.17;96303.34;5049566;28;20253;-73
2021/06/20 09:43:54;;;;;;;8.82;3.47;;;;;;;28.86;47.48;96302.56;5051929;28;20196;-73
2021/06/20 09:46:20;;;;;;;4.85;2.95;;;;;;;28.68;48.04;96296.00;5051103;28;20181;-73
2021/06/20 09:48:47;;;;;;;4.28;2.95;;;;;;;28.39;48.51;96306.19;5049835;28;20577;-71
2021/06/20 09:51:26;;;;;;;6.28;3.17;;;;;;;28.46;48.06;96300.94;5034580;28;20936;-71
2021/06/20 09:53:52;;;;;;;8.73;3.50;;;;;;;28.49;47.86;96299.44;5032758;28;20228;-72
2021/06/20 09:56:29;;;;;;;5.15;2.88;;;;;;;28.43;47.45;96290.84;5050796;28;20643;-73
2021/06/20 09:59:06;;;;;;;3.22;2.92;;;;;;;28.71;46.93;96295.25;5032697;28;20213;-73
2021/06/20 10:01:35;;;;;;;6.18;3.45;;;;;;;28.92;46.59;96295.72;5049727;28;20635;-73
2021/06/20 10:04:00;;;;;;;2.97;2.72;;;;;;;29.12;45.69;96294.56;5034586;28;20201;-74
2021/06/20 10:06:28;;;;;;;6.68;2.63;;;;;;;29.44;44.33;96300.53;5053515;28;20174;-74
2021/06/20 10:08:54;;;;;;;3.83;2.45;;;;;;;29.16;44.30;96292.69;5054328;28;20216;-74
2021/06/20 10:11:20;;;;;;;5.47;2.85;;;;;;;28.97;44.74;96278.47;5036423;28;20547;-74
2021/06/20 10:13:46;;;;;;;4.80;2.70;;;;;;;29.05;44.14;96283.63;5053425;28;20174;-73
2021/06/20 10:16:30;;;;;;;4.93;2.72;;;;;;;28.94;44.85;96278.03;5054537;28;20186;-75
2021/06/20 10:19:06;;;;;;;2.95;2.65;;;;;;;28.67;44.58;96275.53;5053908;28;20236;-74
2021/06/20 10:21:41;;;;;;;3.85;2.47;;;;;;;28.45;44.70;96272.41;5053485;28;20815;-74
2021/06/20 10:24:11;;;;;;;4.13;2.65;;;;;;;28.63;44.15;96270.09;5054393;28;20192;-74
2021/06/20 10:26:40;;;;;;;3.08;2.67;;;;;;;28.49;43.80;96262.47;5052845;28;20256;-73
2021/06/20 10:29:36;;;;;;;2.65;2.40;;;;;;;28.44;44.34;96254.66;5053953;28;20332;-73
2021/06/20 10:32:17;;;;;;;3.20;2.15;;;;;;;28.49;44.31;96257.06;5045431;28;20562;-73
2021/06/20 10:34:57;;;;;;;2.22;2.03;;;;;;;28.32;44.22;96244.00;5052833;28;20189;-73
2021/06/20 10:37:42;;;;;;;4.35;2.50;;;;;;;28.66;44.00;96244.28;5049434;28;20186;-73
2021/06/20 10:40:30;;;;;;;3.60;2.03;;;;;;;28.99;43.08;96241.88;5050271;28;20324;-73
2021/06/20 10:42:59;;;;;;;1.98;1.80;;;;;;;29.06;42.84;96236.59;5053527;28;20259;-72
2021/06/20 10:45:37;;;;;;;3.20;2.20;;;;;;;28.70;43.54;96226.28;5053121;28;20665;-73
2021/06/20 10:48:21;;;;;;;6.80;2.55;;;;;;;28.85;43.10;96226.22;5069104;28;20263;-74
2021/06/20 10:50:51;;;;;;;3.35;2.50;;;;;;;28.77;44.48;96211.03;5052777;28;20173;-74
2021/06/20 10:53:18;;;;;;;5.13;2.25;;;;;;;28.86;44.38;96219.69;5052521;28;20201;-74
2021/06/20 10:55:52;;;;;;;2.75;2.33;;;;;;;28.84;44.03;96213.84;5052898;28;20178;-74
2021/06/20 10:58:26;;;;;;;3.60;1.92;;;;;;;28.74;44.18;96219.84;5053512;28;20201;-73
2021/06/20 11:01:12;;;;;;;4.63;2.30;;;;;;;28.77;44.22;96218.31;5054819;28;20174;-76
2021/06/20 11:03:39;;;;;;;5.10;2.30;;;;;;;28.79;44.32;96216.84;5054795;28;20225;-73
2021/06/20 11:06:08;;;;;;;3.33;2.30;;;;;;;28.71;44.39;96225.91;5056507;28;20489;-73
2021/06/20 11:08:42;;;;;;;2.90;2.10;;;;;;;28.60;44.40;96214.13;5052629;28;20237;-74
2021/06/20 11:11:21;;;;;;;6.97;2.45;;;;;;;28.66;44.93;96223.50;5053719;28;20173;-77
2021/06/20 11:14:08;;;;;;;2.75;2.47;;;;;;;29.03;43.42;96223.06;5045414;28;20280;-74
2021/06/20 11:16:36;;;;;;;4.13;2.10;;;;;;;29.42;43.25;96215.63;5051102;28;20173;-72
2021/06/20 11:19:10;;;;;;;6.05;2.72;;;;;;;29.05;43.69;96210.75;5053867;28;20247;-76
2021/06/20 11:21:55;;;;;;;3.95;2.90;;;;;;;29.12;43.58;96215.50;5052521;28;20268;-75
2021/06/20 11:24:28;;;;;;;3.22;2.72;;;;;;;28.64;44.56;96212.31;5053021;28;20225;-72
2021/06/20 11:27:06;;;;;;;3.47;2.47;;;;;;;28.49;45.02;96210.44;5053279;28;20180;-72
2021/06/20 11:29:49;;;;;;;2.92;2.55;;;;;;;28.68;45.00;96205.06;5052245;28;20201;-75
2021/06/20 11:32:17;;;;;;;3.25;2.50;;;;;;;28.70;45.64;96202.75;5052824;28;20181;-75
2021/06/20 11:34:57;;;;;;;4.88;2.55;;;;;;;28.57;45.87;96200.59;5034249;28;20174;-75
2021/06/20 11:37:24;;;;;;;14.00;2.90;;;;;;;28.81;45.29;96197.63;5052826;28;20211;-75